Explorer Of The Seas — C6SE4 — position and weather

sailwx.info

Track history (hours):
 
Tides and Currents Weather Stations Pressure Air Temp Water Temp Dewpoint Dewpoint Depression Visibility Wind Speed Wind Dir Waves Ship Positions

Explorer Of The Seas

Operator: Royal Caribbean Cruises Ltd

Last reported at 2018-May-25 05:10 UTC. Time now 2018-May-25 05:29 UTC.
Position N 48°13' W 123°49'.

Length 311 m; draft 9.1 m.

Type: Passenger vessel. MMSI: 311316000.

Date/timePositionNaut miles runAvg speedWind from/ knotsBaromVisibWave heightAir tempDewpointWater temp
2018-May-25 05:10N 48°13' W 123°49'18 5.4
2018-May-25 01:47N 48°22' W 123°25'14 1.2
2018-May-24 13:38N 48°14' W 123°42'216.2
2018-May-24 13:29N 48°14' W 123°46'7416.4
2018-May-24 09:00N 48°36' W 125°32'917.7
2018-May-24 08:30N 48°41' W 125°43'917.6
2018-May-24 08:00N 48°46' W 125°54'917.8
2018-May-24 07:30N 48°51' W 126°05'917.8
2018-May-24 07:01N 48°57' W 126°15'918.2
2018-May-24 06:30N 49°02' W 126°27'917.9
2018-May-24 06:00N 49°07' W 126°38'917.6
2018-May-24 05:30N 49°12' W 126°48'917.8
2018-May-24 05:00N 49°18' W 126°59'7018.1
2018-May-24 01:08N 50°03' W 128°23'818.1
2018-May-24 00:41N 50°08' W 128°32'417.4
2018-May-24 00:27N 50°11' W 128°36'  
2018-May-19 10:53N 49°14' W 126°52'1420.5
2018-May-19 10:12N 49°06' W 126°34'520.9
2018-May-19 09:58N 49°03' W 126°28'1120.6
2018-May-19 09:27N 48°57' W 126°15'920.5
2018-May-19 09:01N 48°51' W 126°04'1020.6
2018-May-19 08:30N 48°44' W 125°52'1120.8
2018-May-19 08:00N 48°40' W 125°38'1220.8
2018-May-19 07:24N 48°33' W 125°22'1020.9
2018-May-19 06:56N 48°31' W 125°07'922.2
2018-May-19 06:31N 48°31' W 124°53'1121.4
2018-May-19 06:01N 48°29' W 124°37'1121.4
2018-May-19 05:31N 48°25' W 124°22'1020.8
2018-May-19 05:01N 48°21' W 124°08'2620.1
2018-May-19 03:43N 48°14' W 123°31'419.3
2018-May-19 03:30N 48°12' W 123°25'2816.1
2018-May-19 01:45N 48°09' W 122°43'515.3
2018-May-19 01:25N 48°05' W 122°39'818.0
2018-May-19 00:59N 47°58' W 122°34'918.8
2018-May-19 00:30N 47°50' W 122°28'1020.0
2018-May-19 00:00N 47°40' W 122°27'4 7.2
2018-May-18 23:30N 47°38' W 122°23'0 0.0
2018-May-18 23:00N 47°38' W 122°23'0 0.0
2018-May-18 22:21N 47°38' W 122°23'0 0.0
2018-May-18 22:00N 47°38' W 122°23'0 0.0
2018-May-18 21:27N 47°38' W 122°23'0 0.0
2018-May-18 21:00N 47°38' W 122°23'0 0.0
2018-May-18 20:30N 47°38' W 122°23'0 0.0
2018-May-18 20:00N 47°38' W 122°23'0 0.0
2018-May-18 19:30N 47°38' W 122°23'0 0.0
2018-May-18 18:57N 47°38' W 122°23'0 0.0
2018-May-18 18:30N 47°38' W 122°23'0 0.0
2018-May-18 18:00N 47°38' W 122°23'0 0.0
2018-May-18 17:30N 47°38' W 122°23'0 0.0
2018-May-18 17:00N 47°38' W 122°23'0 0.0
2018-May-18 16:30N 47°38' W 122°23'0 0.0
2018-May-18 15:57N 47°38' W 122°23'0 0.0
2018-May-18 15:30N 47°38' W 122°23'0 0.0
2018-May-18 15:00N 47°38' W 122°23'0 0.0
2018-May-18 14:30N 47°38' W 122°23'0 0.0
2018-May-18 14:00N 47°38' W 122°23'0 0.0
2018-May-18 13:30N 47°38' W 122°23'0 0.0
2018-May-18 13:00N 47°38' W 122°23'0 0.0
2018-May-18 12:30N 47°38' W 122°23'1 1.9
2018-May-18 12:00N 47°37' W 122°24'510.9
2018-May-18 11:30N 47°42' W 122°28'713.7
2018-May-18 11:00N 47°49' W 122°28'713.4
2018-May-18 10:30N 47°56' W 122°31'1913.7
2018-May-18 09:09N 48°10' W 122°48'216.0
2018-May-18 09:00N 48°11' W 122°51'815.6
2018-May-18 08:30N 48°12' W 123°03'815.2
2018-May-18 08:00N 48°11' W 123°14'713.2
2018-May-18 07:29N 48°10' W 123°24'714.8
2018-May-18 07:00N 48°13' W 123°34'813.5
2018-May-18 06:23N 48°13' W 123°46'613.9
2018-May-18 05:58N 48°13' W 123°55'613.6
2018-May-18 05:30N 48°16' W 124°03'714.0
2018-May-18 05:00N 48°19' W 124°13'713.9
2018-May-18 04:30N 48°22' W 124°22'3 5.8
2018-May-18 04:00N 48°25' W 124°22'713.5
2018-May-18 03:28N 48°22' W 124°12'613.1
2018-May-18 03:00N 48°20' W 124°04'1912.8
2018-May-18 01:30N 48°16' W 123°35'5 9.3
2018-May-18 01:00N 48°17' W 123°29'611.4
2018-May-18 00:30N 48°22' W 123°25'3 6.4
2018-May-18 00:00N 48°25' W 123°24'0 0.1
2018-May-17 23:28N 48°25' W 123°24'0 0.0
2018-May-17 22:58N 48°25' W 123°24'0 0.0
2018-May-17 22:28N 48°25' W 123°24'0 0.0
2018-May-17 21:58N 48°25' W 123°24'0 0.0
2018-May-17 21:28N 48°25' W 123°24'0 0.0
2018-May-17 20:58N 48°25' W 123°24'0 0.0
2018-May-17 20:28N 48°25' W 123°24'0 0.0
2018-May-17 19:58N 48°25' W 123°24'0 0.0
2018-May-17 19:28N 48°25' W 123°24'0 0.0
2018-May-17 18:58N 48°25' W 123°24'0 0.0
2018-May-17 18:28N 48°25' W 123°24'0 0.0
2018-May-17 17:58N 48°25' W 123°24'0 0.0
2018-May-17 17:28N 48°25' W 123°24'0 0.0
2018-May-17 16:58N 48°25' W 123°24'0 0.0
2018-May-17 16:28N 48°25' W 123°24'0 0.0
2018-May-17 15:58N 48°25' W 123°24'0 0.0
2018-May-17 15:28N 48°25' W 123°24'0 0.0
2018-May-17 14:58N 48°25' W 123°24'0 0.4
2018-May-17 14:30N 48°25' W 123°24'2 4.4
2018-May-17 14:00N 48°23' W 123°23'4 7.9
2018-May-17 13:30N 48°19' W 123°25'510.2
2018-May-17 13:00N 48°14' W 123°28'713.1
2018-May-17 12:30N 48°13' W 123°38'713.4
2018-May-17 12:00N 48°13' W 123°48'713.5
2018-May-17 11:30N 48°14' W 123°58'815.6
2018-May-17 11:00N 48°18' W 124°08'815.9
2018-May-17 10:30N 48°21' W 124°19'714.0
2018-May-17 10:00N 48°25' W 124°28'5 9.0
2018-May-17 09:30N 48°24' W 124°21'5 9.1
2018-May-17 09:00N 48°23' W 124°15'5 9.2
2018-May-17 08:29N 48°21' W 124°08'5 9.1
2018-May-17 07:58N 48°19' W 124°02'4 9.3
2018-May-17 07:30N 48°17' W 123°56'711.7
2018-May-17 06:54N 48°16' W 123°45'717.1
2018-May-17 06:28N 48°15' W 123°34'714.3
2018-May-17 06:00N 48°20' W 123°27'714.2
2018-May-17 05:29N 48°23' W 123°17'612.9
2018-May-17 05:00N 48°29' W 123°13'714.6
2018-May-17 04:30N 48°36' W 123°14'713.6
2018-May-17 03:58N 48°43' W 123°13'914.5
2018-May-17 03:19N 48°48' W 123°01'515.0
2018-May-17 03:00N 48°52' W 123°06'714.6
2018-May-17 02:30N 48°57' W 123°14'714.4
2018-May-17 02:00N 49°02' W 123°22'814.0
2018-May-17 01:28N 49°07' W 123°30'1014.3
2018-May-17 00:47N 49°12' W 123°43'414.5
2018-May-17 00:29N 49°13' W 123°49'5 0.5
2018-May-16 14:12N 49°10' W 123°55'0 0.0
2018-May-16 13:57N 49°10' W 123°55'0 0.1
2018-May-16 13:30N 49°10' W 123°55'1510.5
2018-May-16 12:03N 49°09' W 123°32'115.9
2018-May-16 12:00N 49°09' W 123°31'815.9
2018-May-16 11:30N 49°04' W 123°21'816.6
2018-May-16 11:01N 48°59' W 123°12'816.2
2018-May-16 10:30N 48°53' W 123°03'713.6
2018-May-16 10:00N 48°46' W 123°02'918.3
2018-May-16 09:30N 48°42' W 123°14'816.4
2018-May-16 09:00N 48°34' W 123°12'917.8
2018-May-16 08:31N 48°25' W 123°10'815.3
2018-May-16 08:01N 48°22' W 123°21'3 6.9
2018-May-16 07:30N 48°20' W 123°24'4 7.2
2018-May-16 07:00N 48°16' W 123°26'5 9.5
2018-May-16 06:31N 48°14' W 123°32'6 9.6
2018-May-16 05:56N 48°13' W 123°40'510.4
2018-May-16 05:28N 48°13' W 123°47'510.1
2018-May-16 04:58N 48°14' W 123°55'5 9.8
2018-May-16 04:29N 48°15' W 124°02'510.0
2018-May-16 04:00N 48°17' W 124°08'510.3
2018-May-16 03:30N 48°20' W 124°15'510.2
2018-May-16 03:00N 48°22' W 124°22'5 9.8
2018-May-16 02:30N 48°24' W 124°29'510.0
2018-May-16 02:00N 48°26' W 124°36'510.0
2018-May-16 01:31N 48°28' W 124°42'5 9.8
2018-May-16 01:00N 48°29' W 124°50'5 9.9
2018-May-16 00:30N 48°29' W 124°57'5 9.6
2018-May-15 23:59N 48°29' W 125°05'5 9.5
2018-May-15 23:31N 48°29' W 125°12'5 9.7
2018-May-15 23:01N 48°29' W 125°19'5 9.8
2018-May-15 22:31N 48°30' W 125°26'4 8.8
2018-May-15 22:01N 48°31' W 125°33'510.3
2018-May-15 21:31N 48°31' W 125°40'510.3
2018-May-15 21:01N 48°32' W 125°48'510.0
2018-May-15 20:30N 48°32' W 125°56'5 9.8
2018-May-15 20:00N 48°33' W 126°03'5 9.7
2018-May-15 19:31N 48°34' W 126°10'5 9.7
2018-May-15 19:00N 48°34' W 126°18'4 8.2
2018-May-15 18:30N 48°37' W 126°22'10 8.4
2018-May-15 17:20N 48°39' W 126°07'4 9.6
2018-May-15 16:55N 48°38' W 126°01'6 9.6
2018-May-15 16:15N 48°36' W 125°52'25 9.8
2018-May-15 13:39N 48°31' W 125°14'3 9.8
2018-May-15 13:22N 48°31' W 125°10'4 9.6
2018-May-15 12:57N 48°31' W 125°04'4 9.9
2018-May-15 12:30N 48°31' W 124°57'5 9.7
2018-May-15 12:01N 48°31' W 124°50'5 9.7
2018-May-15 11:30N 48°30' W 124°43'510.2
2018-May-15 11:01N 48°28' W 124°36'5 9.7
2018-May-15 10:30N 48°27' W 124°29'5 9.8
2018-May-15 10:01N 48°25' W 124°22'510.1
2018-May-15 09:29N 48°23' W 124°15'510.1
2018-May-15 09:00N 48°21' W 124°08'  
Track history (hours):
 
Tides and Currents Weather Stations Pressure Air Temp Water Temp Dewpoint Dewpoint Depression Visibility Wind Speed Wind Dir Waves Ship Positions

Explorer Of The Seas

Operator: Royal Caribbean Cruises Ltd

Last reported at 2018-May-25 05:10 UTC. Time now 2018-May-25 05:29 UTC.
Position N 48°13' W 123°49'.

Length 311 m; draft 9.1 m.

Type: Passenger vessel. MMSI: 311316000.

Date/timePositionNaut miles runAvg speedWind from/ knotsBaromVisibWave heightAir tempDewpointWater temp
2018-May-25 05:10N 48°13' W 123°49'18 5.4
2018-May-25 01:47N 48°22' W 123°25'14 1.2
2018-May-24 13:38N 48°14' W 123°42'216.2
2018-May-24 13:29N 48°14' W 123°46'7416.4
2018-May-24 09:00N 48°36' W 125°32'917.7
2018-May-24 08:30N 48°41' W 125°43'917.6
2018-May-24 08:00N 48°46' W 125°54'917.8
2018-May-24 07:30N 48°51' W 126°05'917.8
2018-May-24 07:01N 48°57' W 126°15'918.2
2018-May-24 06:30N 49°02' W 126°27'917.9
2018-May-24 06:00N 49°07' W 126°38'917.6
2018-May-24 05:30N 49°12' W 126°48'917.8
2018-May-24 05:00N 49°18' W 126°59'7018.1
2018-May-24 01:08N 50°03' W 128°23'818.1
2018-May-24 00:41N 50°08' W 128°32'417.4
2018-May-24 00:27N 50°11' W 128°36'  
2018-May-19 10:53N 49°14' W 126°52'1420.5
2018-May-19 10:12N 49°06' W 126°34'520.9
2018-May-19 09:58N 49°03' W 126°28'1120.6
2018-May-19 09:27N 48°57' W 126°15'920.5
2018-May-19 09:01N 48°51' W 126°04'1020.6
2018-May-19 08:30N 48°44' W 125°52'1120.8
2018-May-19 08:00N 48°40' W 125°38'1220.8
2018-May-19 07:24N 48°33' W 125°22'1020.9
2018-May-19 06:56N 48°31' W 125°07'922.2
2018-May-19 06:31N 48°31' W 124°53'1121.4
2018-May-19 06:01N 48°29' W 124°37'1121.4
2018-May-19 05:31N 48°25' W 124°22'1020.8
2018-May-19 05:01N 48°21' W 124°08'2620.1
2018-May-19 03:43N 48°14' W 123°31'419.3
2018-May-19 03:30N 48°12' W 123°25'2816.1
2018-May-19 01:45N 48°09' W 122°43'515.3
2018-May-19 01:25N 48°05' W 122°39'818.0
2018-May-19 00:59N 47°58' W 122°34'918.8
2018-May-19 00:30N 47°50' W 122°28'1020.0
2018-May-19 00:00N 47°40' W 122°27'4 7.2
2018-May-18 23:30N 47°38' W 122°23'0 0.0
2018-May-18 23:00N 47°38' W 122°23'0 0.0
2018-May-18 22:21N 47°38' W 122°23'0 0.0
2018-May-18 22:00N 47°38' W 122°23'0 0.0
2018-May-18 21:27N 47°38' W 122°23'0 0.0
2018-May-18 21:00N 47°38' W 122°23'0 0.0
2018-May-18 20:30N 47°38' W 122°23'0 0.0
2018-May-18 20:00N 47°38' W 122°23'0 0.0
2018-May-18 19:30N 47°38' W 122°23'0 0.0
2018-May-18 18:57N 47°38' W 122°23'0 0.0
2018-May-18 18:30N 47°38' W 122°23'0 0.0
2018-May-18 18:00N 47°38' W 122°23'0 0.0
2018-May-18 17:30N 47°38' W 122°23'0 0.0
2018-May-18 17:00N 47°38' W 122°23'0 0.0
2018-May-18 16:30N 47°38' W 122°23'0 0.0
2018-May-18 15:57N 47°38' W 122°23'0 0.0
2018-May-18 15:30N 47°38' W 122°23'0 0.0
2018-May-18 15:00N 47°38' W 122°23'0 0.0
2018-May-18 14:30N 47°38' W 122°23'0 0.0
2018-May-18 14:00N 47°38' W 122°23'0 0.0
2018-May-18 13:30N 47°38' W 122°23'0 0.0
2018-May-18 13:00N 47°38' W 122°23'0 0.0
2018-May-18 12:30N 47°38' W 122°23'1 1.9
2018-May-18 12:00N 47°37' W 122°24'510.9
2018-May-18 11:30N 47°42' W 122°28'713.7
2018-May-18 11:00N 47°49' W 122°28'713.4
2018-May-18 10:30N 47°56' W 122°31'1913.7
2018-May-18 09:09N 48°10' W 122°48'216.0
2018-May-18 09:00N 48°11' W 122°51'815.6
2018-May-18 08:30N 48°12' W 123°03'815.2
2018-May-18 08:00N 48°11' W 123°14'713.2
2018-May-18 07:29N 48°10' W 123°24'714.8
2018-May-18 07:00N 48°13' W 123°34'813.5
2018-May-18 06:23N 48°13' W 123°46'613.9
2018-May-18 05:58N 48°13' W 123°55'613.6
2018-May-18 05:30N 48°16' W 124°03'714.0
2018-May-18 05:00N 48°19' W 124°13'713.9
2018-May-18 04:30N 48°22' W 124°22'3 5.8
2018-May-18 04:00N 48°25' W 124°22'713.5
2018-May-18 03:28N 48°22' W 124°12'613.1
2018-May-18 03:00N 48°20' W 124°04'1912.8
2018-May-18 01:30N 48°16' W 123°35'5 9.3
2018-May-18 01:00N 48°17' W 123°29'611.4
2018-May-18 00:30N 48°22' W 123°25'3 6.4
2018-May-18 00:00N 48°25' W 123°24'0 0.1
2018-May-17 23:28N 48°25' W 123°24'0 0.0
2018-May-17 22:58N 48°25' W 123°24'0 0.0
2018-May-17 22:28N 48°25' W 123°24'0 0.0
2018-May-17 21:58N 48°25' W 123°24'0 0.0
2018-May-17 21:28N 48°25' W 123°24'0 0.0
2018-May-17 20:58N 48°25' W 123°24'0 0.0
2018-May-17 20:28N 48°25' W 123°24'0 0.0
2018-May-17 19:58N 48°25' W 123°24'0 0.0
2018-May-17 19:28N 48°25' W 123°24'0 0.0
2018-May-17 18:58N 48°25' W 123°24'0 0.0
2018-May-17 18:28N 48°25' W 123°24'0 0.0
2018-May-17 17:58N 48°25' W 123°24'0 0.0
2018-May-17 17:28N 48°25' W 123°24'0 0.0
2018-May-17 16:58N 48°25' W 123°24'0 0.0
2018-May-17 16:28N 48°25' W 123°24'0 0.0
2018-May-17 15:58N 48°25' W 123°24'0 0.0
2018-May-17 15:28N 48°25' W 123°24'0 0.0
2018-May-17 14:58N 48°25' W 123°24'0 0.4
2018-May-17 14:30N 48°25' W 123°24'2 4.4
2018-May-17 14:00N 48°23' W 123°23'4 7.9
2018-May-17 13:30N 48°19' W 123°25'510.2
2018-May-17 13:00N 48°14' W 123°28'713.1
2018-May-17 12:30N 48°13' W 123°38'713.4
2018-May-17 12:00N 48°13' W 123°48'713.5
2018-May-17 11:30N 48°14' W 123°58'815.6
2018-May-17 11:00N 48°18' W 124°08'815.9
2018-May-17 10:30N 48°21' W 124°19'714.0
2018-May-17 10:00N 48°25' W 124°28'5 9.0
2018-May-17 09:30N 48°24' W 124°21'5 9.1
2018-May-17 09:00N 48°23' W 124°15'5 9.2
2018-May-17 08:29N 48°21' W 124°08'5 9.1
2018-May-17 07:58N 48°19' W 124°02'4 9.3
2018-May-17 07:30N 48°17' W 123°56'711.7
2018-May-17 06:54N 48°16' W 123°45'717.1
2018-May-17 06:28N 48°15' W 123°34'714.3
2018-May-17 06:00N 48°20' W 123°27'714.2
2018-May-17 05:29N 48°23' W 123°17'612.9
2018-May-17 05:00N 48°29' W 123°13'714.6
2018-May-17 04:30N 48°36' W 123°14'713.6
2018-May-17 03:58N 48°43' W 123°13'914.5
2018-May-17 03:19N 48°48' W 123°01'515.0
2018-May-17 03:00N 48°52' W 123°06'714.6
2018-May-17 02:30N 48°57' W 123°14'714.4
2018-May-17 02:00N 49°02' W 123°22'814.0
2018-May-17 01:28N 49°07' W 123°30'1014.3
2018-May-17 00:47N 49°12' W 123°43'414.5
2018-May-17 00:29N 49°13' W 123°49'5 0.5
2018-May-16 14:12N 49°10' W 123°55'0 0.0
2018-May-16 13:57N 49°10' W 123°55'0 0.1
2018-May-16 13:30N 49°10' W 123°55'1510.5
2018-May-16 12:03N 49°09' W 123°32'115.9
2018-May-16 12:00N 49°09' W 123°31'815.9
2018-May-16 11:30N 49°04' W 123°21'816.6
2018-May-16 11:01N 48°59' W 123°12'816.2
2018-May-16 10:30N 48°53' W 123°03'713.6
2018-May-16 10:00N 48°46' W 123°02'918.3
2018-May-16 09:30N 48°42' W 123°14'816.4
2018-May-16 09:00N 48°34' W 123°12'917.8
2018-May-16 08:31N 48°25' W 123°10'815.3
2018-May-16 08:01N 48°22' W 123°21'3 6.9
2018-May-16 07:30N 48°20' W 123°24'4 7.2
2018-May-16 07:00N 48°16' W 123°26'5 9.5
2018-May-16 06:31N 48°14' W 123°32'6 9.6
2018-May-16 05:56N 48°13' W 123°40'510.4
2018-May-16 05:28N 48°13' W 123°47'510.1
2018-May-16 04:58N 48°14' W 123°55'5 9.8
2018-May-16 04:29N 48°15' W 124°02'510.0
2018-May-16 04:00N 48°17' W 124°08'510.3
2018-May-16 03:30N 48°20' W 124°15'510.2
2018-May-16 03:00N 48°22' W 124°22'5 9.8
2018-May-16 02:30N 48°24' W 124°29'510.0
2018-May-16 02:00N 48°26' W 124°36'510.0
2018-May-16 01:31N 48°28' W 124°42'5 9.8
2018-May-16 01:00N 48°29' W 124°50'5 9.9
2018-May-16 00:30N 48°29' W 124°57'5 9.6
2018-May-15 23:59N 48°29' W 125°05'5 9.5
2018-May-15 23:31N 48°29' W 125°12'5 9.7
2018-May-15 23:01N 48°29' W 125°19'5 9.8
2018-May-15 22:31N 48°30' W 125°26'4 8.8
2018-May-15 22:01N 48°31' W 125°33'510.3
2018-May-15 21:31N 48°31' W 125°40'510.3
2018-May-15 21:01N 48°32' W 125°48'510.0
2018-May-15 20:30N 48°32' W 125°56'5 9.8
2018-May-15 20:00N 48°33' W 126°03'5 9.7
2018-May-15 19:31N 48°34' W 126°10'5 9.7
2018-May-15 19:00N 48°34' W 126°18'4 8.2
2018-May-15 18:30N 48°37' W 126°22'10 8.4
2018-May-15 17:20N 48°39' W 126°07'4 9.6
2018-May-15 16:55N 48°38' W 126°01'6 9.6
2018-May-15 16:15N 48°36' W 125°52'25 9.8
2018-May-15 13:39N 48°31' W 125°14'3 9.8
2018-May-15 13:22N 48°31' W 125°10'4 9.6
2018-May-15 12:57N 48°31' W 125°04'4 9.9
2018-May-15 12:30N 48°31' W 124°57'5 9.7
2018-May-15 12:01N 48°31' W 124°50'5 9.7
2018-May-15 11:30N 48°30' W 124°43'510.2
2018-May-15 11:01N 48°28' W 124°36'5 9.7
2018-May-15 10:30N 48°27' W 124°29'5 9.8
2018-May-15 10:01N 48°25' W 124°22'510.1
2018-May-15 09:29N 48°23' W 124°15'510.1
2018-May-15 09:00N 48°21' W 124°08'  

Dump ship's entire track history